Time;durP1;ratioP1;P1;durP2;ratioP2;P2;SDS_P1;SDS_P2;PMS_P1;PMS_P2;Temp;Humidity;BMP_temperature;BMP_pressure;BME280_temperature;BME280_humidity;BME280_pressure;Samples;Min_cycle;Max_cycle;Signal;HPM_P1;HPM_P2
2023/09/29 00:00:17;;;;;;;39.50;24.80;;;;;;;12.60;100.00;101645.30;109630;1251;72828;-74
2023/09/29 00:02:46;;;;;;;;;;;;;;;12.56;100.00;101647.09;109614;1251;60501;-74
2023/09/29 00:05:17;;;;;;;43.90;26.10;;;;;;;12.53;100.00;101643.59;109684;1251;59830;-73
2023/09/29 00:07:45;;;;;;;38.00;24.80;;;;;;;12.52;100.00;101640.48;109626;1251;73851;-74
2023/09/29 00:10:15;;;;;;;41.10;25.40;;;;;;;12.54;100.00;101636.85;109645;1251;63543;-74
2023/09/29 00:12:43;;;;;;;35.60;23.70;;;;;;;12.56;100.00;101641.80;109655;1251;71561;-74
2023/09/29 00:15:10;;;;;;;33.30;22.90;;;;;;;12.57;100.00;101640.18;109585;1251;62680;-74
2023/09/29 00:17:38;;;;;;;32.60;22.90;;;;;;;12.55;100.00;101639.95;109624;1251;60055;-75
2023/09/29 00:20:17;;;;;;;35.90;22.60;;;;;;;12.51;100.00;101641.93;109598;1251;74056;-74
2023/09/29 00:22:46;;;;;;;35.40;23.80;;;;;;;12.44;100.00;101642.78;109629;1251;63872;-75
2023/09/29 00:25:14;;;;;;;35.50;24.30;;;;;;;12.41;100.00;101645.08;109605;1251;72866;-74
2023/09/29 00:27:42;;;;;;;34.40;22.40;;;;;;;12.38;100.00;101641.86;109629;1253;60469;-74
2023/09/29 00:30:10;;;;;;;34.40;24.60;;;;;;;12.32;100.00;101643.77;109615;1251;60042;-74
2023/09/29 00:32:48;;;;;;;37.20;26.50;;;;;;;12.26;100.00;101643.91;109658;1251;73972;-74
2023/09/29 00:35:27;;;;;;;38.40;24.90;;;;;;;12.25;100.00;101644.63;109618;1251;62464;-74
2023/09/29 00:37:59;;;;;;;34.30;24.80;;;;;;;12.27;100.00;101644.17;109623;1251;72701;-74
2023/09/29 00:40:27;;;;;;;34.00;24.00;;;;;;;12.28;100.00;101645.73;109608;1251;61682;-73
2023/09/29 00:42:57;;;;;;;37.80;25.00;;;;;;;12.28;100.00;101649.77;109614;1251;60719;-74
2023/09/29 00:45:28;;;;;;;32.00;22.80;;;;;;;12.28;100.00;101649.07;109633;1251;73906;-74
2023/09/29 00:47:57;;;;;;;31.10;23.70;;;;;;;12.26;100.00;101650.05;109596;1251;62685;-74
2023/09/29 00:50:26;;;;;;;36.20;23.90;;;;;;;12.21;100.00;101649.23;109587;1251;72375;-74
2023/09/29 00:52:58;;;;;;;37.00;23.80;;;;;;;12.16;100.00;101653.86;109582;1252;62013;-74
2023/09/29 00:55:28;;;;;;;31.60;22.40;;;;;;;12.11;100.00;101652.69;109478;1251;58796;-74
2023/09/29 00:57:58;;;;;;;31.30;23.90;;;;;;;12.08;100.00;101650.90;109615;1251;74232;-73
2023/09/29 01:02:57;;;;;;;30.80;22.70;;;;;;;12.04;100.00;101658.65;109525;1251;72679;-74
2023/09/29 01:05:25;;;;;;;32.60;24.60;;;;;;;12.02;100.00;101654.70;109619;1251;60501;-74
2023/09/29 01:07:52;;;;;;;36.00;24.70;;;;;;;12.00;100.00;101655.32;109601;1253;60232;-73
2023/09/29 01:10:20;;;;;;;35.10;23.50;;;;;;;11.99;100.00;101655.41;109618;1251;73032;-74
2023/09/29 01:12:48;;;;;;;38.50;22.50;;;;;;;11.96;100.00;101653.95;109666;1251;62839;-73
2023/09/29 01:15:19;;;;;;;34.50;24.20;;;;;;;11.94;100.00;101656.86;109684;1251;73034;-73
2023/09/29 01:17:46;;;;;;;31.80;23.40;;;;;;;11.93;100.00;101661.48;109670;1251;60344;-74
2023/09/29 01:20:27;;;;;;;35.30;24.40;;;;;;;11.91;100.00;101660.37;109672;1251;60123;-74
2023/09/29 01:23:03;;;;;;;35.30;24.70;;;;;;;11.87;100.00;101661.56;109631;1251;73992;-74
2023/09/29 01:25:30;;;;;;;38.40;25.30;;;;;;;11.86;100.00;101661.46;109549;1253;64030;-74
2023/09/29 01:27:58;;;;;;;40.60;27.20;;;;;;;11.83;100.00;101659.83;109592;1252;72732;-74
2023/09/29 01:30:27;;;;;;;39.50;27.10;;;;;;;11.80;100.00;101661.20;109442;1252;61799;-74
2023/09/29 01:32:59;;;;;;;35.40;24.40;;;;;;;11.79;100.00;101660.54;109589;1253;58818;-74
2023/09/29 01:35:28;;;;;;;34.80;23.10;;;;;;;11.78;100.00;101660.58;109588;1252;73844;-74
2023/09/29 01:37:58;;;;;;;33.80;24.50;;;;;;;11.78;100.00;101661.65;109564;1253;62283;-73
2023/09/29 01:40:27;;;;;;;39.60;25.00;;;;;;;11.78;100.00;101661.83;109626;1253;71592;-74
2023/09/29 01:42:56;;;;;;;33.30;24.70;;;;;;;11.77;100.00;101661.88;109577;1252;60430;-74
2023/09/29 01:45:25;;;;;;;35.40;24.70;;;;;;;11.75;100.00;101661.61;109605;1252;58981;-75
2023/09/29 01:47:53;;;;;;;36.10;23.90;;;;;;;11.72;100.00;101665.05;109489;1253;73105;-74
2023/09/29 01:50:21;;;;;;;33.20;22.90;;;;;;;11.71;100.00;101666.72;109573;1253;63727;-73
2023/09/29 01:52:49;;;;;;;33.00;23.30;;;;;;;11.69;100.00;101668.07;109576;1252;72695;-74
2023/09/29 01:55:19;;;;;;;32.80;21.10;;;;;;;11.66;100.00;101671.17;109559;1253;61687;-74
2023/09/29 01:57:48;;;;;;;36.80;22.90;;;;;;;11.64;100.00;101672.84;109610;1253;58733;-75
2023/09/29 02:00:19;;;;;;;31.10;22.30;;;;;;;11.61;100.00;101669.79;109485;1254;72626;-73
2023/09/29 02:02:47;;;;;;;35.30;24.00;;;;;;;11.60;100.00;101673.88;109501;1252;62722;-73
2023/09/29 02:05:16;;;;;;;41.90;26.20;;;;;;;11.59;100.00;101675.19;109591;1252;71446;-73
2023/09/29 02:07:44;;;;;;;35.20;24.30;;;;;;;11.57;100.00;101678.27;109609;1252;60465;-74
2023/09/29 02:10:11;;;;;;;32.40;24.80;;;;;;;11.54;100.00;101680.10;109531;1252;60011;-74
2023/09/29 02:12:46;;;;;;;34.80;25.40;;;;;;;11.53;100.00;101679.83;109587;1252;73059;-75
2023/09/29 02:15:18;;;;;;;37.20;26.00;;;;;;;11.51;100.00;101678.02;109525;1254;63981;-74
2023/09/29 02:17:47;;;;;;;39.50;25.80;;;;;;;11.48;100.00;101672.69;109468;1253;72719;-73
2023/09/29 02:20:21;;;;;;;39.30;25.90;;;;;;;11.47;100.00;101673.98;109578;1252;60480;-74
2023/09/29 02:22:51;;;;;;;36.70;26.70;;;;;;;11.45;100.00;101678.80;109468;1252;60122;-73
2023/09/29 02:25:19;;;;;;;40.00;25.70;;;;;;;11.44;100.00;101673.42;109540;1251;73962;-74
2023/09/29 02:27:46;;;;;;;42.60;24.20;;;;;;;11.42;100.00;101675.44;109610;1251;63902;-74
2023/09/29 02:30:14;;;;;;;38.00;24.60;;;;;;;11.41;100.00;101669.02;109662;1251;72671;-74
2023/09/29 02:32:41;;;;;;;34.80;25.10;;;;;;;11.39;100.00;101665.58;109600;1252;61826;-74
2023/09/29 02:35:10;;;;;;;36.80;25.20;;;;;;;11.38;100.00;101670.90;109614;1251;59998;-73
2023/09/29 02:37:38;;;;;;;36.80;25.50;;;;;;;11.36;100.00;101673.26;109597;1251;72558;-73
2023/09/29 02:40:11;;;;;;;37.90;24.90;;;;;;;11.34;100.00;101672.46;109727;1251;62385;-75
2023/09/29 02:42:39;;;;;;;32.60;24.20;;;;;;;11.33;100.00;101671.83;109616;1253;72660;-74
2023/09/29 02:45:06;;;;;;;36.20;24.90;;;;;;;11.32;100.00;101676.63;109627;1251;61734;-74
2023/09/29 02:47:39;;;;;;;37.90;24.70;;;;;;;11.29;100.00;101673.27;109656;1251;58991;-73
2023/09/29 02:50:11;;;;;;;39.10;25.10;;;;;;;11.25;100.00;101675.51;109630;1252;71613;-73
2023/09/29 02:52:39;;;;;;;32.80;22.80;;;;;;;11.24;100.00;101673.45;109653;1250;62429;-74
2023/09/29 02:55:10;;;;;;;34.70;24.00;;;;;;;11.24;100.00;101674.17;109620;1251;71339;-72
2023/09/29 02:57:40;;;;;;;36.40;24.50;;;;;;;11.24;100.00;101675.08;109677;1251;60756;-73
2023/09/29 03:00:18;;;;;;;59.30;25.50;;;;;;;11.22;100.00;101676.16;109584;1251;58756;-73
2023/09/29 03:02:48;;;;;;;44.30;25.20;;;;;;;11.22;100.00;101673.75;109647;1251;74207;-74
2023/09/29 03:05:16;;;;;;;39.10;25.20;;;;;;;11.20;100.00;101674.34;109617;1251;62345;-73
2023/09/29 03:07:44;;;;;;;38.70;22.80;;;;;;;11.18;100.00;101673.71;109603;1251;72683;-73
2023/09/29 03:10:15;;;;;;;41.40;24.80;;;;;;;11.16;100.00;101675.41;109642;1251;61681;-74
2023/09/29 03:12:44;;;;;;;28.70;21.90;;;;;;;11.13;100.00;101679.73;109631;1253;61057;-76
2023/09/29 03:15:15;;;;;;;32.60;23.90;;;;;;;11.11;100.00;101675.61;109665;1251;74081;-73
2023/09/29 03:17:44;;;;;;;32.50;22.90;;;;;;;11.10;100.00;101676.38;109624;1253;62694;-76
2023/09/29 03:20:12;;;;;;;32.40;22.10;;;;;;;11.08;100.00;101672.95;109657;1251;72454;-73
2023/09/29 03:22:45;;;;;;;38.80;24.90;;;;;;;11.08;100.00;101672.64;109608;1251;59916;-74
2023/09/29 03:25:20;;;;;;;44.80;25.50;;;;;;;11.07;100.00;101669.53;109387;1252;59047;-74
2023/09/29 03:27:48;;;;;;;40.70;25.10;;;;;;;11.05;100.00;101672.23;109571;1251;72395;-73
2023/09/29 03:30:16;;;;;;;44.60;30.10;;;;;;;11.03;100.00;101673.19;109599;1253;62275;-75
2023/09/29 03:32:43;;;;;;;38.80;25.30;;;;;;;11.01;100.00;101673.98;109622;1253;72246;-74
2023/09/29 03:35:13;;;;;;;43.00;24.50;;;;;;;11.01;100.00;101678.73;109549;1253;60712;-72
2023/09/29 03:37:43;;;;;;;33.10;23.10;;;;;;;10.99;100.00;101681.06;109587;1253;58162;-72
2023/09/29 03:40:14;;;;;;;40.00;23.80;;;;;;;10.98;100.00;101678.66;109546;1251;71733;-75
2023/09/29 03:42:41;;;;;;;31.70;24.00;;;;;;;10.98;100.00;101678.48;109537;1252;62286;-72
2023/09/29 03:45:11;;;;;;;39.00;24.60;;;;;;;10.99;100.00;101681.95;109550;1253;72700;-74
2023/09/29 03:47:39;;;;;;;36.70;25.30;;;;;;;10.99;100.00;101683.16;109549;1253;61702;-75
2023/09/29 03:50:10;;;;;;;39.60;22.80;;;;;;;10.98;100.00;101683.20;109577;1251;59013;-74
2023/09/29 03:52:39;;;;;;;48.30;25.80;;;;;;;10.98;100.00;101681.46;109580;1253;72662;-75
2023/09/29 03:55:06;;;;;;;40.40;23.70;;;;;;;10.98;100.00;101688.29;109575;1252;63812;-74
2023/09/29 03:57:34;;;;;;;35.00;24.10;;;;;;;10.97;100.00;101683.23;109550;1253;72578;-73
2023/09/29 04:00:03;;;;;;;41.80;23.40;;;;;;;10.98;100.00;101685.84;109556;1256;59409;-74
2023/09/29 04:02:41;;;;;;;38.80;23.40;;;;;;;10.96;100.00;101690.09;109634;1253;60007;-73
2023/09/29 04:05:10;;;;;;;36.10;23.30;;;;;;;10.96;100.00;101688.36;109537;1253;72539;-73
2023/09/29 04:07:39;;;;;;;34.40;22.00;;;;;;;10.97;100.00;101689.90;109558;1252;62263;-74
2023/09/29 04:10:09;;;;;;;33.70;21.70;;;;;;;10.98;100.00;101697.02;109555;1253;71995;-73
2023/09/29 04:12:37;;;;;;;29.70;20.10;;;;;;;10.99;100.00;101695.95;109359;1251;62717;-74
2023/09/29 04:15:06;;;;;;;36.00;22.20;;;;;;;11.00;100.00;101696.06;109595;1253;58725;-76
2023/09/29 04:17:38;;;;;;;37.10;20.50;;;;;;;11.02;100.00;101697.71;109562;1253;73950;-74
2023/09/29 04:20:06;;;;;;;28.50;19.80;;;;;;;11.04;100.00;101696.77;109573;1253;65805;-74
2023/09/29 04:22:34;;;;;;;33.20;20.90;;;;;;;11.06;100.00;101703.53;109566;1253;72944;-74
2023/09/29 04:25:01;;;;;;;32.50;20.40;;;;;;;11.08;100.00;101701.86;109585;1251;61724;-73
2023/09/29 04:27:29;;;;;;;34.00;20.60;;;;;;;11.11;100.00;101700.33;109660;1252;59048;-73
2023/09/29 04:29:58;;;;;;;35.20;21.00;;;;;;;11.14;100.00;101703.34;109644;1252;73821;-75
2023/09/29 04:32:25;;;;;;;30.50;21.10;;;;;;;11.18;100.00;101704.02;109668;1251;62453;-76
2023/09/29 04:34:53;;;;;;;31.20;21.20;;;;;;;11.24;100.00;101702.17;109577;1251;71966;-74
2023/09/29 04:37:20;;;;;;;34.30;20.20;;;;;;;11.30;100.00;101701.23;109574;1251;64350;-76
2023/09/29 04:39:48;;;;;;;36.60;17.60;;;;;;;11.35;100.00;101698.67;109652;1252;58880;-74
2023/09/29 04:42:15;;;;;;;37.30;19.80;;;;;;;11.43;100.00;101700.94;109654;1251;72644;-74
2023/09/29 04:44:42;;;;;;;31.50;19.40;;;;;;;11.61;100.00;101702.04;109658;1251;63709;-73
2023/09/29 04:47:10;;;;;;;25.00;18.20;;;;;;;11.94;100.00;101696.81;109621;1253;72848;-76
2023/09/29 04:49:37;;;;;;;28.10;19.80;;;;;;;12.36;100.00;101697.05;109610;1251;61907;-75
2023/09/29 04:52:05;;;;;;;41.40;20.50;;;;;;;12.73;100.00;101695.33;109637;1252;59262;-73
2023/09/29 04:54:32;;;;;;;30.00;17.90;;;;;;;13.00;100.00;101696.40;109618;1251;74007;-73
2023/09/29 04:57:00;;;;;;;41.90;20.70;;;;;;;13.14;100.00;101698.09;109641;1253;63031;-74
2023/09/29 04:59:27;;;;;;;30.80;18.80;;;;;;;13.23;100.00;101696.23;109428;1251;71654;-74
2023/09/29 05:01:55;;;;;;;31.60;19.30;;;;;;;13.29;100.00;101697.83;109608;1251;61746;-73
2023/09/29 05:04:22;;;;;;;35.80;19.00;;;;;;;13.37;100.00;101696.05;109691;1251;58783;-74
2023/09/29 05:06:51;;;;;;;33.50;19.50;;;;;;;13.42;100.00;101695.73;109591;1251;72649;-73
2023/09/29 05:09:19;;;;;;;31.60;18.90;;;;;;;13.50;100.00;101695.17;109593;1251;63597;-74
2023/09/29 05:11:47;;;;;;;29.00;19.80;;;;;;;13.56;100.00;101701.13;109627;1251;71332;-74
2023/09/29 05:14:15;;;;;;;26.50;18.90;;;;;;;13.63;100.00;101700.39;109653;1253;60466;-73
2023/09/29 05:16:42;;;;;;;39.20;18.00;;;;;;;13.75;100.00;101700.24;109572;1251;58315;-74
2023/09/29 05:19:10;;;;;;;38.10;21.00;;;;;;;14.09;100.00;101703.62;109608;1251;73882;-74
2023/09/29 05:21:37;;;;;;;42.30;22.20;;;;;;;14.60;100.00;101702.77;109617;1251;62579;-74
2023/09/29 05:24:05;;;;;;;33.30;21.60;;;;;;;14.99;100.00;101704.65;109590;1253;71798;-74
2023/09/29 05:26:33;;;;;;;37.30;23.30;;;;;;;15.22;100.00;101705.34;109629;1252;61809;-77
2023/09/29 05:29:00;;;;;;;33.30;23.60;;;;;;;15.41;100.00;101707.88;109622;1251;58706;-74
2023/09/29 05:31:27;;;;;;;42.60;21.80;;;;;;;15.60;100.00;101707.00;109623;1251;73958;-74
2023/09/29 05:33:55;;;;;;;36.80;20.80;;;;;;;15.80;100.00;101703.27;109625;1251;62691;-74
2023/09/29 05:36:22;;;;;;;28.80;20.70;;;;;;;16.15;100.00;101706.48;109567;1251;72710;-75
2023/09/29 05:42:07;;;;;;;28.40;18.80;;;;;;;17.74;100.00;101700.65;102816;1293;604197;-76
2023/09/29 05:44:34;;;;;;;37.80;18.60;;;;;;;18.74;100.00;101704.79;105259;1267;62008;-74
2023/09/29 05:47:02;;;;;;;28.50;17.90;;;;;;;19.58;100.00;101709.38;105117;1264;60442;-76
2023/09/29 05:49:30;;;;;;;28.10;17.30;;;;;;;20.40;100.00;101698.73;105740;1255;72260;-78
2023/09/29 05:51:57;;;;;;;31.40;18.00;;;;;;;21.20;100.00;101699.70;105668;1260;63902;-74
2023/09/29 05:54:24;;;;;;;26.10;17.30;;;;;;;21.95;100.00;101699.42;105578;1260;218639;-74
2023/09/29 05:56:51;;;;;;;24.00;17.30;;;;;;;22.59;98.05;101696.74;105788;1252;60546;-76
2023/09/29 05:59:18;;;;;;;27.30;16.70;;;;;;;23.19;93.71;101700.33;105971;1256;60650;-76
2023/09/29 06:01:46;;;;;;;30.40;17.30;;;;;;;23.74;89.03;101698.38;105911;1253;72078;-76
2023/09/29 06:04:12;;;;;;;25.40;17.50;;;;;;;24.27;83.96;101693.73;105843;1253;62578;-77
2023/09/29 06:06:39;;;;;;;24.40;18.10;;;;;;;24.81;76.23;101689.19;105887;1255;71383;-77
2023/09/29 06:09:07;;;;;;;32.10;18.10;;;;;;;25.35;65.86;101682.33;106351;1256;60619;-74
2023/09/29 06:11:34;;;;;;;31.70;18.40;;;;;;;25.87;58.67;101681.28;105781;1254;60178;-75
2023/09/29 06:14:01;;;;;;;25.60;17.20;;;;;;;26.29;53.26;101684.41;105970;1254;73230;-76
2023/09/29 06:16:28;;;;;;;26.40;17.40;;;;;;;26.66;51.85;101683.33;105984;1256;63843;-75
2023/09/29 06:18:55;;;;;;;31.00;18.30;;;;;;;27.05;49.73;101681.88;105889;1253;71276;-75
2023/09/29 06:21:22;;;;;;;20.00;16.20;;;;;;;27.46;46.91;101686.14;105681;1259;59809;-75
2023/09/29 06:23:49;;;;;;;22.80;16.20;;;;;;;27.86;45.21;101681.96;105896;1257;59618;-76
2023/09/29 06:26:16;;;;;;;26.40;15.60;;;;;;;28.19;43.54;101679.09;105815;1255;73498;-76
2023/09/29 06:28:43;;;;;;;29.20;16.70;;;;;;;28.48;41.91;101678.07;105732;1257;63914;-76
2023/09/29 06:31:10;;;;;;;27.50;16.90;;;;;;;28.80;40.40;101679.34;105859;1254;72790;-77
2023/09/29 06:33:37;;;;;;;24.90;17.40;;;;;;;29.13;39.03;101677.71;105810;1252;59659;-76
2023/09/29 06:36:04;;;;;;;33.50;16.60;;;;;;;29.45;38.20;101678.77;105784;1255;59774;-76
2023/09/29 06:38:31;;;;;;;26.90;16.80;;;;;;;29.76;37.17;101678.02;105731;1256;72193;-75
2023/09/29 06:40:58;;;;;;;22.40;16.90;;;;;;;30.09;36.71;101676.75;105869;1256;63935;-77
2023/09/29 06:43:25;;;;;;;25.50;18.20;;;;;;;30.42;36.57;101681.71;105973;1256;72700;-76
2023/09/29 06:45:52;;;;;;;30.40;18.80;;;;;;;30.72;35.26;101673.20;105728;1256;60376;-75
2023/09/29 06:48:28;;;;;;;27.30;16.60;;;;;;;30.93;34.35;101675.46;105662;1253;60861;-77
2023/09/29 06:50:59;;;;;;;27.00;16.10;;;;;;;31.14;34.04;101678.57;106353;1254;73587;-75
2023/09/29 06:53:28;;;;;;;28.20;17.50;;;;;;;31.35;33.57;101678.55;105845;1256;62603;-75
2023/09/29 06:55:54;;;;;;;29.00;18.20;;;;;;;31.45;32.95;101675.81;105964;1257;72751;-76
2023/09/29 06:58:21;;;;;;;26.90;18.50;;;;;;;31.46;32.47;101675.86;105996;1254;60206;-76
2023/09/29 07:00:51;;;;;;;36.40;19.00;;;;;;;31.51;32.62;101679.46;105932;1254;60299;-76
2023/09/29 07:03:18;;;;;;;26.70;18.10;;;;;;;31.66;32.34;101681.94;105958;1254;72970;-75
2023/09/29 07:05:49;;;;;;;29.40;16.90;;;;;;;31.76;31.80;101676.58;105961;1257;63545;-76
2023/09/29 07:08:17;;;;;;;20.10;15.20;;;;;;;31.78;31.68;101674.04;105860;1256;72619;-75
2023/09/29 07:10:45;;;;;;;21.40;16.00;;;;;;;31.84;31.54;101676.87;105801;1257;60478;-76
2023/09/29 07:13:12;;;;;;;26.60;17.00;;;;;;;32.01;31.36;101677.98;105842;1251;60342;-77
2023/09/29 07:15:39;;;;;;;31.00;16.30;;;;;;;32.23;31.04;101678.16;105871;1256;72898;-77
2023/09/29 07:18:10;;;;;;;18.90;14.60;;;;;;;32.34;30.30;101677.69;105895;1254;62259;-79
2023/09/29 07:20:41;;;;;;;28.50;15.90;;;;;;;32.48;30.52;101675.38;105667;1258;72968;-77
2023/09/29 07:23:09;;;;;;;21.60;14.60;;;;;;;32.71;30.09;101672.92;105923;1257;60220;-78
2023/09/29 07:25:40;;;;;;;29.00;15.10;;;;;;;32.86;29.89;101673.21;105896;1255;60967;-74
2023/09/29 07:28:09;;;;;;;24.20;14.90;;;;;;;32.91;29.56;101674.36;105794;1254;72995;-76
2023/09/29 07:30:36;;;;;;;28.90;16.10;;;;;;;32.88;29.89;101676.16;105784;1253;62464;-72
2023/09/29 07:33:03;;;;;;;23.70;15.00;;;;;;;32.94;29.50;101673.51;106215;1256;72712;-73
2023/09/29 07:35:30;;;;;;;27.50;15.60;;;;;;;32.99;29.55;101673.32;105587;1259;60419;-75
2023/09/29 07:37:59;;;;;;;25.00;15.10;;;;;;;33.16;29.20;101673.90;106105;1251;60192;-73
2023/09/29 07:40:26;;;;;;;22.00;15.00;;;;;;;33.35;28.86;101672.13;106044;1251;73081;-78
2023/09/29 07:42:52;;;;;;;24.30;14.30;;;;;;;33.63;28.73;101672.35;106067;1251;63806;-76
2023/09/29 07:45:20;;;;;;;22.00;15.00;;;;;;;33.94;28.44;101670.83;105966;1253;72750;-78
2023/09/29 07:47:46;;;;;;;16.40;13.30;;;;;;;34.14;28.10;101671.43;105978;1251;59592;-77
2023/09/29 07:50:14;;;;;;;24.00;14.20;;;;;;;34.32;27.59;101668.09;106015;1251;60301;-76
2023/09/29 07:52:41;;;;;;;22.10;14.90;;;;;;;34.51;27.53;101667.95;105990;1253;73116;-76
2023/09/29 07:55:09;;;;;;;22.20;15.30;;;;;;;34.51;27.19;101665.08;106001;1254;63892;-78
2023/09/29 07:57:36;;;;;;;22.40;14.90;;;;;;;34.48;26.85;101666.13;106042;1251;72567;-78
2023/09/29 08:00:12;;;;;;;21.20;16.00;;;;;;;34.41;26.77;101665.44;106185;1253;60418;-75
2023/09/29 08:02:39;;;;;;;20.90;14.80;;;;;;;34.38;26.84;101663.20;106112;1251;60238;-76
2023/09/29 08:05:08;;;;;;;25.70;14.80;;;;;;;34.41;26.95;101660.80;106154;1253;73166;-76
2023/09/29 08:07:35;;;;;;;20.00;14.80;;;;;;;34.42;26.88;101656.25;106179;1251;62312;-76
2023/09/29 08:10:02;;;;;;;18.80;15.20;;;;;;;34.48;26.85;101656.23;106092;1253;72667;-75
2023/09/29 08:12:35;;;;;;;26.10;14.70;;;;;;;34.47;26.72;101656.75;106116;1253;60753;-77
2023/09/29 08:15:06;;;;;;;23.30;14.10;;;;;;;34.57;26.48;101654.45;106792;1251;60352;-75
2023/09/29 08:17:33;;;;;;;19.80;14.40;;;;;;;34.56;26.50;101654.97;106156;1251;73340;-75
2023/09/29 08:20:00;;;;;;;22.60;14.70;;;;;;;34.56;26.56;101651.33;106105;1254;64143;-77
2023/09/29 08:22:26;;;;;;;22.20;15.00;;;;;;;34.77;26.44;101649.04;106144;1253;72647;-75
2023/09/29 08:25:10;;;;;;;22.40;15.40;;;;;;;35.07;26.11;101645.77;106133;1253;59748;-75
2023/09/29 08:27:37;;;;;;;20.40;15.10;;;;;;;35.33;25.82;101648.00;106180;1251;60323;-75
2023/09/29 08:30:05;;;;;;;21.70;14.10;;;;;;;35.55;25.35;101643.09;106193;1254;73174;-75
2023/09/29 08:32:32;;;;;;;20.90;14.70;;;;;;;35.70;25.14;101635.75;106185;1254;63967;-77
2023/09/29 08:34:59;;;;;;;21.10;14.50;;;;;;;35.87;25.04;101635.34;106110;1253;72580;-77
2023/09/29 08:37:26;;;;;;;18.80;13.30;;;;;;;36.07;25.08;101634.46;106098;1250;59719;-76
2023/09/29 08:39:53;;;;;;;18.20;14.20;;;;;;;36.28;25.03;101637.02;106101;1251;60365;-75
2023/09/29 08:42:44;;;;;;;16.40;13.60;;;;;;;36.38;24.74;101632.11;106076;1250;72996;-75
2023/09/29 08:45:11;;;;;;;17.50;14.00;;;;;;;36.51;24.71;101628.95;106100;1253;63900;-78
2023/09/29 08:47:40;;;;;;;21.40;14.50;;;;;;;36.57;24.48;101623.98;106111;1251;72732;-75
2023/09/29 08:50:11;;;;;;;19.30;14.20;;;;;;;36.68;24.47;101621.44;106156;1251;59730;-77
2023/09/29 08:52:40;;;;;;;18.30;14.20;;;;;;;36.93;24.03;101621.84;106189;1254;59703;-75
2023/09/29 08:55:07;;;;;;;20.50;14.00;;;;;;;37.20;23.75;101619.62;106180;1249;66210;-76
2023/09/29 08:57:34;;;;;;;20.20;15.50;;;;;;;37.44;23.21;101618.34;106420;1257;59612;-75
2023/09/29 09:00:03;;;;;;;23.60;14.00;;;;;;;37.58;23.15;101619.59;105900;1256;65135;-77
2023/09/29 09:02:30;;;;;;;23.00;13.70;;;;;;;37.73;23.28;101617.61;106313;1254;59621;-78
2023/09/29 09:04:57;;;;;;;20.40;13.80;;;;;;;37.91;23.12;101617.61;106217;1251;59717;-78
2023/09/29 09:07:24;;;;;;;18.10;15.00;;;;;;;38.04;22.53;101618.80;106032;1250;64232;-74
2023/09/29 09:09:53;;;;;;;18.90;13.20;;;;;;;38.10;22.05;101619.45;105904;1254;59701;-78
2023/09/29 09:12:31;;;;;;;19.20;13.50;;;;;;;38.19;21.98;101619.34;106161;1251;63738;-77
2023/09/29 09:14:58;;;;;;;19.20;14.50;;;;;;;38.32;21.87;101618.14;106078;1249;59720;-74
2023/09/29 09:17:25;;;;;;;16.60;12.80;;;;;;;38.46;21.79;101615.05;106213;1253;59603;-77
2023/09/29 09:19:52;;;;;;;20.60;13.70;;;;;;;38.63;22.08;101613.86;106173;1249;64300;-76
2023/09/29 09:22:31;;;;;;;19.30;13.70;;;;;;;38.72;21.98;101610.34;106097;1254;59640;-77
2023/09/29 09:25:12;;;;;;;21.90;13.60;;;;;;;38.84;21.66;101609.65;106144;1251;64994;-80
2023/09/29 09:27:39;;;;;;;21.50;14.00;;;;;;;38.99;21.46;101606.60;106125;1254;60079;-75
2023/09/29 09:30:20;;;;;;;22.80;13.40;;;;;;;39.22;21.31;101607.03;106185;1251;60151;-77
2023/09/29 09:32:47;;;;;;;20.10;15.20;;;;;;;39.36;21.30;101606.41;106150;1250;65491;-76
2023/09/29 09:35:27;;;;;;;14.60;12.20;;;;;;;39.45;21.11;101602.16;106099;1251;59665;-75
2023/09/29 09:37:55;;;;;;;15.00;12.40;;;;;;;39.60;20.92;101597.50;106337;1251;72659;-76
2023/09/29 09:40:24;;;;;;;16.50;11.70;;;;;;;39.70;20.84;101595.53;106418;1251;59618;-76
2023/09/29 09:42:53;;;;;;;17.10;11.40;;;;;;;39.70;20.03;101590.27;106247;1253;59615;-78
2023/09/29 09:45:24;;;;;;;17.10;10.50;;;;;;;39.68;20.03;101590.86;106268;1250;64417;-78
2023/09/29 09:47:57;;;;;;;19.00;10.20;;;;;;;39.69;19.97;101584.98;105915;1255;59679;-76
2023/09/29 09:50:27;;;;;;;15.20;10.30;;;;;;;39.68;19.80;101585.31;106250;1251;64042;-75
2023/09/29 09:52:54;;;;;;;14.90;9.70;;;;;;;39.71;19.51;101580.23;106133;1250;60539;-75
2023/09/29 09:55:27;;;;;;;11.40;8.70;;;;;;;39.78;19.33;101581.42;106089;1254;60436;-80
2023/09/29 09:57:54;;;;;;;11.50;8.30;;;;;;;39.78;19.03;101577.23;106158;1253;65347;-77
2023/09/29 10:00:24;;;;;;;13.00;8.80;;;;;;;39.77;19.27;101575.25;105952;1256;60541;-79
2023/09/29 10:02:52;;;;;;;13.10;7.30;;;;;;;39.78;18.65;101570.44;105956;1254;73045;-80
2023/09/29 10:05:23;;;;;;;12.00;7.60;;;;;;;39.79;18.49;101565.55;106225;1254;60558;-77
2023/09/29 10:07:51;;;;;;;9.80;7.80;;;;;;;39.82;18.79;101566.06;106137;1251;60474;-76
2023/09/29 10:10:40;;;;;;;11.30;6.90;;;;;;;39.77;18.69;101562.79;106140;1252;65294;-79
2023/09/29 10:13:11;;;;;;;13.70;6.30;;;;;;;39.68;18.90;101558.89;106287;1254;60453;-77
2023/09/29 10:15:39;;;;;;;10.80;7.30;;;;;;;39.62;18.70;101554.63;106235;1254;65098;-77
2023/09/29 10:18:17;;;;;;;9.00;6.20;;;;;;;39.53;18.92;101549.02;106230;1253;60415;-76
2023/09/29 10:20:55;;;;;;;7.90;5.30;;;;;;;39.45;18.78;101547.69;106387;1250;60615;-78
2023/09/29 10:23:25;;;;;;;18.30;6.10;;;;;;;39.34;18.77;101546.86;106208;1253;72613;-76
2023/09/29 10:25:58;;;;;;;9.80;4.70;;;;;;;39.28;18.53;101545.88;106258;1254;60331;-75
2023/09/29 10:28:31;;;;;;;9.00;4.90;;;;;;;39.16;18.50;101542.06;106209;1249;64130;-78
2023/09/29 10:31:27;;;;;;;7.40;4.70;;;;;;;39.14;18.75;101538.03;105796;1256;60498;-76
2023/09/29 10:33:55;;;;;;;6.90;4.70;;;;;;;39.26;18.74;101535.11;106086;1252;60539;-74
2023/09/29 10:36:27;;;;;;;4.70;4.00;;;;;;;39.27;18.34;101532.92;105963;1251;65190;-77
2023/09/29 10:38:57;;;;;;;8.90;4.30;;;;;;;39.06;18.12;101526.17;105981;1254;60434;-78
2023/09/29 10:41:25;;;;;;;7.00;4.30;;;;;;;38.90;17.79;101525.29;105825;1254;64882;-76
2023/09/29 10:44:03;;;;;;;5.50;3.80;;;;;;;38.79;18.08;101523.14;105809;1251;60424;-75
2023/09/29 10:46:30;;;;;;;8.60;4.40;;;;;;;38.73;18.33;101519.96;105879;1251;60868;-79
2023/09/29 10:48:58;;;;;;;9.00;4.40;;;;;;;38.70;18.48;101514.79;105807;1256;65213;-80
2023/09/29 10:51:30;;;;;;;5.70;3.00;;;;;;;38.74;18.55;101510.98;105891;1254;63951;-75
2023/09/29 10:54:07;;;;;;;8.80;4.10;;;;;;;38.70;18.01;101510.61;105861;1251;72030;-77
2023/09/29 10:56:36;;;;;;;7.70;4.10;;;;;;;38.63;17.99;101507.58;105907;1251;60568;-75
2023/09/29 10:59:08;;;;;;;10.90;3.70;;;;;;;38.56;18.15;101513.39;105971;1255;60524;-77
2023/09/29 11:01:35;;;;;;;8.10;2.90;;;;;;;38.46;17.79;101507.38;106069;1251;65318;-75
2023/09/29 11:04:08;;;;;;;5.80;3.00;;;;;;;38.34;17.57;101503.67;106071;1251;60480;-74
2023/09/29 11:06:49;;;;;;;6.70;3.20;;;;;;;38.23;17.94;101503.71;105993;1251;62719;-75
2023/09/29 11:09:19;;;;;;;6.30;3.50;;;;;;;38.13;18.41;101499.75;105944;1256;60434;-76
2023/09/29 11:11:47;;;;;;;4.20;3.10;;;;;;;37.98;18.17;101498.56;105957;1254;60408;-76
2023/09/29 11:14:14;;;;;;;3.60;3.20;;;;;;;37.71;18.11;101498.30;105989;1251;65274;-75